createdAt,value
2022-11-23T00:00:01.420Z,0
2022-11-23T00:01:16.751Z,0
2022-11-23T00:02:32.051Z,0
2022-11-23T00:03:48.352Z,0
2022-11-23T00:05:04.646Z,0
2022-11-23T00:06:20.943Z,0
2022-11-23T00:07:37.241Z,0
2022-11-23T00:08:53.515Z,0
2022-11-23T00:10:09.821Z,0
2022-11-23T00:11:26.101Z,0
2022-11-23T00:12:42.399Z,0
2022-11-23T00:13:58.694Z,0
2022-11-23T00:15:14.997Z,0
2022-11-23T00:16:31.000Z,0
2022-11-23T00:17:47.580Z,0
2022-11-23T00:19:02.891Z,0
2022-11-23T00:20:19.176Z,0
2022-11-23T00:21:35.472Z,0
2022-11-23T00:22:51.765Z,0
2022-11-23T00:24:08.073Z,0
2022-11-23T00:25:24.347Z,0
2022-11-23T00:26:40.647Z,0
2022-11-23T00:27:55.000Z,0
2022-11-23T00:29:11.284Z,0
2022-11-23T00:30:26.585Z,0
2022-11-23T00:31:41.908Z,0
2022-11-23T00:32:57.000Z,0
2022-11-23T00:34:12.515Z,0
2022-11-23T00:35:28.818Z,0
2022-11-23T00:36:45.116Z,0
2022-11-23T00:38:01.405Z,0
2022-11-23T00:39:17.690Z,0
2022-11-23T00:40:33.989Z,0
2022-11-23T00:41:50.280Z,0
2022-11-23T00:43:06.584Z,0
2022-11-23T00:44:22.882Z,0
2022-11-23T00:45:39.165Z,0
2022-11-23T00:46:55.458Z,0
2022-11-23T00:48:11.747Z,0
2022-11-23T00:49:28.056Z,0
2022-11-23T00:50:43.352Z,0
2022-11-23T00:51:59.656Z,0
2022-11-23T00:53:15.954Z,0
2022-11-23T00:54:32.244Z,0
2022-11-23T00:55:48.524Z,0
2022-11-23T00:57:04.824Z,0
2022-11-23T00:58:21.115Z,0
2022-11-23T00:59:36.437Z,0
2022-11-23T01:00:51.736Z,0
2022-11-23T01:02:07.056Z,0
2022-11-23T01:03:22.370Z,0
2022-11-23T01:04:38.659Z,0
2022-11-23T01:05:54.957Z,0
2022-11-23T01:07:11.254Z,0
2022-11-23T01:08:27.550Z,0
2022-11-23T01:09:43.841Z,0
2022-11-23T01:11:00.123Z,0
2022-11-23T01:12:16.416Z,0
2022-11-23T01:13:32.716Z,0
2022-11-23T01:14:49.014Z,0
2022-11-23T01:16:05.307Z,0
2022-11-23T01:17:21.602Z,0
2022-11-23T01:18:37.890Z,0
2022-11-23T01:19:53.214Z,0
2022-11-23T01:21:09.494Z,0
2022-11-23T01:22:25.782Z,0
2022-11-23T01:23:42.077Z,0
2022-11-23T01:26:14.663Z,0
2022-11-23T01:27:30.959Z,0
2022-11-23T01:28:47.261Z,0
2022-11-23T01:30:02.569Z,0
2022-11-23T01:31:17.882Z,0
2022-11-23T01:32:33.195Z,0
2022-11-23T01:33:48.497Z,0
2022-11-23T01:35:04.798Z,0
2022-11-23T01:36:21.089Z,0
2022-11-23T01:37:37.392Z,0
2022-11-23T01:38:53.672Z,0
2022-11-23T01:40:09.974Z,0
2022-11-23T01:41:26.270Z,0
2022-11-23T01:42:42.571Z,0
2022-11-23T01:43:58.849Z,0
2022-11-23T01:45:15.152Z,0
2022-11-23T01:46:31.444Z,0
2022-11-23T01:47:47.739Z,0
2022-11-23T01:49:04.036Z,0
2022-11-23T01:51:35.626Z,0
2022-11-23T01:52:51.933Z,0
2022-11-23T01:54:08.000Z,0
2022-11-23T01:55:24.523Z,0
2022-11-23T01:56:40.801Z,0
2022-11-23T01:57:57.102Z,0
2022-11-23T01:59:13.402Z,0
2022-11-23T02:00:28.706Z,0
2022-11-23T02:01:44.010Z,0
2022-11-23T02:03:00.319Z,0
2022-11-23T02:04:16.616Z,0
2022-11-23T02:05:32.901Z,0
2022-11-23T02:06:49.191Z,0
2022-11-23T02:08:05.000Z,0
2022-11-23T02:09:21.778Z,0
2022-11-23T02:10:38.080Z,0
2022-11-23T02:11:54.370Z,0
2022-11-23T02:13:10.652Z,0
2022-11-23T02:14:26.963Z,0
2022-11-23T02:15:43.245Z,0
2022-11-23T02:16:59.530Z,0
2022-11-23T02:18:14.845Z,0
2022-11-23T02:19:31.142Z,0
2022-11-23T02:20:47.434Z,0
2022-11-23T02:22:03.731Z,0
2022-11-23T02:23:20.020Z,0
2022-11-23T02:24:36.316Z,0
2022-11-23T02:25:52.618Z,0
2022-11-23T02:27:07.929Z,0
2022-11-23T02:28:23.227Z,0
2022-11-23T02:29:38.547Z,0
2022-11-23T02:30:53.855Z,0
2022-11-23T02:32:09.167Z,0
2022-11-23T02:33:24.486Z,0
2022-11-23T02:34:40.772Z,0
2022-11-23T02:35:57.064Z,0
2022-11-23T02:37:13.365Z,0
2022-11-23T02:38:29.664Z,0
2022-11-23T02:39:45.949Z,0
2022-11-23T02:41:02.249Z,0
2022-11-23T02:42:18.531Z,0
2022-11-23T02:43:34.831Z,0
2022-11-23T02:44:51.121Z,0
2022-11-23T02:46:07.414Z,0
2022-11-23T02:47:23.710Z,0
2022-11-23T02:48:40.017Z,0
2022-11-23T02:49:55.313Z,0
2022-11-23T02:51:11.612Z,0
2022-11-23T02:52:27.897Z,0
2022-11-23T02:53:44.198Z,0
2022-11-23T02:55:00.481Z,0
2022-11-23T02:56:16.791Z,0
2022-11-23T02:57:33.072Z,0
2022-11-23T02:58:48.386Z,0
2022-11-23T03:00:03.708Z,0
2022-11-23T03:01:19.016Z,0
2022-11-23T03:02:34.329Z,0
2022-11-23T03:03:50.615Z,0
2022-11-23T03:05:06.920Z,0
2022-11-23T03:06:23.203Z,0
2022-11-23T03:07:39.494Z,0
2022-11-23T03:08:55.792Z,0
2022-11-23T03:10:12.079Z,0
2022-11-23T03:11:28.375Z,0
2022-11-23T03:12:44.681Z,0
2022-11-23T03:14:00.963Z,0
2022-11-23T03:15:17.253Z,0
2022-11-23T03:16:33.548Z,0
2022-11-23T03:17:49.849Z,0
2022-11-23T03:19:05.166Z,0
2022-11-23T03:20:21.443Z,0
2022-11-23T03:21:37.739Z,0
2022-11-23T03:22:54.045Z,0
2022-11-23T03:24:10.335Z,0
2022-11-23T03:25:26.625Z,0
2022-11-23T03:26:42.924Z,0
2022-11-23T03:27:58.234Z,0
2022-11-23T03:29:13.544Z,0
2022-11-23T03:30:28.854Z,0
2022-11-23T03:31:44.162Z,0
2022-11-23T03:33:00.456Z,0
2022-11-23T03:34:16.755Z,0
2022-11-23T03:35:33.047Z,0
2022-11-23T03:36:49.343Z,0
2022-11-23T03:38:05.629Z,0
2022-11-23T03:39:21.923Z,0
2022-11-23T03:40:38.218Z,0
2022-11-23T03:41:54.520Z,0
2022-11-23T03:43:10.807Z,0
2022-11-23T03:44:27.096Z,0
2022-11-23T03:45:43.404Z,0
2022-11-23T03:46:59.685Z,0
2022-11-23T03:48:14.996Z,0
2022-11-23T03:49:31.292Z,0
2022-11-23T03:50:47.593Z,0
2022-11-23T03:52:03.879Z,0
2022-11-23T03:53:20.170Z,0
2022-11-23T03:54:36.476Z,0
2022-11-23T03:55:52.755Z,0
2022-11-23T03:57:08.078Z,0
2022-11-23T03:58:23.379Z,0
2022-11-23T03:59:38.693Z,0
2022-11-23T04:00:54.010Z,0
2022-11-23T04:02:10.298Z,0
2022-11-23T04:03:26.591Z,0
2022-11-23T04:04:42.901Z,0
2022-11-23T04:05:58.201Z,0
2022-11-23T04:07:14.495Z,0
2022-11-23T04:08:30.794Z,0
2022-11-23T04:09:47.082Z,0
2022-11-23T04:11:03.372Z,0
2022-11-23T04:12:19.675Z,0
2022-11-23T04:13:35.967Z,0
2022-11-23T04:14:52.256Z,0
2022-11-23T04:16:08.550Z,0
2022-11-23T04:17:24.839Z,0
2022-11-23T04:18:41.144Z,0
2022-11-23T04:19:57.438Z,0
2022-11-23T04:21:13.723Z,0
2022-11-23T04:22:29.029Z,0
2022-11-23T04:23:45.328Z,0
2022-11-23T04:25:01.614Z,0
2022-11-23T04:26:16.928Z,0
2022-11-23T04:27:32.241Z,0
2022-11-23T04:28:48.546Z,0
2022-11-23T04:30:04.830Z,0
2022-11-23T04:31:21.123Z,0
2022-11-23T04:32:37.426Z,0
2022-11-23T04:33:53.712Z,0
2022-11-23T04:35:10.016Z,0
2022-11-23T04:36:26.295Z,0
2022-11-23T04:37:42.594Z,0
2022-11-23T04:38:58.890Z,0
2022-11-23T04:40:15.175Z,0
2022-11-23T04:41:31.468Z,0
2022-11-23T04:42:47.764Z,0
2022-11-23T04:44:03.070Z,0
2022-11-23T04:45:19.370Z,0
2022-11-23T04:46:35.654Z,0
2022-11-23T04:47:51.962Z,0
2022-11-23T04:49:08.241Z,0
2022-11-23T04:50:24.553Z,0
2022-11-23T04:51:40.833Z,0
2022-11-23T04:52:56.146Z,0
2022-11-23T04:54:11.463Z,0
2022-11-23T04:55:27.754Z,0
2022-11-23T04:56:44.043Z,0
2022-11-23T04:58:00.333Z,0
2022-11-23T04:59:16.628Z,0
2022-11-23T05:00:32.933Z,0
2022-11-23T05:01:49.225Z,0
2022-11-23T05:03:05.516Z,0
2022-11-23T05:04:21.806Z,0
2022-11-23T05:05:38.103Z,0
2022-11-23T05:06:54.402Z,0
2022-11-23T05:08:10.685Z,0
2022-11-23T05:09:26.979Z,0
2022-11-23T05:10:42.294Z,0
2022-11-23T05:11:58.591Z,0
2022-11-23T05:13:14.892Z,0
2022-11-23T05:14:31.182Z,0
2022-11-23T05:15:47.464Z,0
2022-11-23T05:17:03.765Z,0
2022-11-23T05:18:20.064Z,0
2022-11-23T05:19:35.365Z,0
2022-11-23T05:20:50.688Z,0
2022-11-23T05:22:05.991Z,0
2022-11-23T05:23:21.299Z,0
2022-11-23T05:24:37.598Z,0
2022-11-23T05:25:53.898Z,0
2022-11-23T05:27:10.192Z,0
2022-11-23T05:28:26.487Z,0
2022-11-23T05:29:42.766Z,0
2022-11-23T05:30:59.067Z,0
2022-11-23T05:32:15.362Z,0
2022-11-23T05:33:31.648Z,0
2022-11-23T05:34:47.944Z,0
2022-11-23T05:36:04.231Z,0
2022-11-23T05:37:20.532Z,0
2022-11-23T05:38:36.823Z,0
2022-11-23T05:39:52.129Z,0
2022-11-23T05:41:08.423Z,0
2022-11-23T05:42:24.727Z,0
2022-11-23T05:43:41.014Z,0
2022-11-23T05:44:57.309Z,0
2022-11-23T05:46:13.601Z,0
2022-11-23T05:47:29.904Z,0
2022-11-23T05:48:45.222Z,0
2022-11-23T05:50:00.526Z,0
2022-11-23T05:51:16.812Z,0
2022-11-23T05:52:33.103Z,0
2022-11-23T05:53:49.400Z,0
2022-11-23T05:55:05.692Z,0
2022-11-23T05:56:21.996Z,0
2022-11-23T05:57:38.282Z,0
2022-11-23T05:58:54.574Z,0
2022-11-23T06:00:10.875Z,0
2022-11-23T06:01:27.159Z,0
2022-11-23T06:02:43.462Z,0
2022-11-23T06:03:59.764Z,0
2022-11-23T06:05:16.047Z,0
2022-11-23T06:06:31.351Z,0
2022-11-23T06:07:47.652Z,0
2022-11-23T06:09:03.948Z,0
2022-11-23T06:10:20.183Z,0
2022-11-23T06:11:36.481Z,0
2022-11-23T06:12:52.728Z,0
2022-11-23T06:14:08.967Z,0
2022-11-23T06:15:24.294Z,0
2022-11-23T06:16:39.545Z,0
2022-11-23T06:17:54.806Z,0
2022-11-23T06:19:10.075Z,0
2022-11-23T06:20:26.311Z,0
2022-11-23T06:21:42.545Z,0
2022-11-23T06:22:58.783Z,0
2022-11-23T06:24:15.032Z,0
2022-11-23T06:25:31.256Z,0
2022-11-23T06:26:47.502Z,0
2022-11-23T06:28:03.743Z,0
2022-11-23T06:29:19.988Z,0
2022-11-23T06:30:36.230Z,0
2022-11-23T06:31:52.463Z,0
2022-11-23T06:33:08.707Z,0
2022-11-23T06:34:24.940Z,0
2022-11-23T06:35:40.203Z,0
2022-11-23T06:36:56.429Z,0
2022-11-23T06:38:12.679Z,0
2022-11-23T06:39:28.926Z,0
2022-11-23T06:40:45.165Z,0
2022-11-23T06:42:01.408Z,0
2022-11-23T06:43:17.635Z,0
2022-11-23T06:44:32.894Z,0
2022-11-23T06:45:48.145Z,0
2022-11-23T06:47:03.415Z,0
2022-11-23T06:48:18.662Z,0
2022-11-23T06:49:34.903Z,0
2022-11-23T06:50:51.142Z,0
2022-11-23T06:52:07.394Z,0
2022-11-23T06:53:23.624Z,0
2022-11-23T06:54:39.868Z,0
2022-11-23T06:55:56.105Z,0
2022-11-23T06:57:12.352Z,0
2022-11-23T06:58:28.583Z,0
2022-11-23T06:59:44.821Z,0
2022-11-23T07:01:01.074Z,0
2022-11-23T07:02:17.300Z,0
2022-11-23T07:03:33.538Z,5
2022-11-23T07:04:48.800Z,5
2022-11-23T07:06:05.051Z,5
2022-11-23T07:07:21.282Z,5
2022-11-23T07:08:37.523Z,5
2022-11-23T07:09:53.756Z,5
2022-11-23T07:11:09.993Z,5
2022-11-23T07:12:26.234Z,5
2022-11-23T07:13:41.505Z,5
2022-11-23T07:14:56.750Z,5
2022-11-23T07:16:12.011Z,5
2022-11-23T07:17:27.268Z,5
2022-11-23T07:18:43.511Z,5
2022-11-23T07:19:59.753Z,5
2022-11-23T07:21:15.992Z,5
2022-11-23T07:22:32.222Z,5
2022-11-23T07:23:48.476Z,5
2022-11-23T07:25:04.709Z,5
2022-11-23T07:26:20.946Z,5
2022-11-23T07:27:37.193Z,5
2022-11-23T07:28:53.425Z,5
2022-11-23T07:30:09.663Z,5
2022-11-23T07:31:25.905Z,11
2022-11-23T07:32:42.143Z,11
2022-11-23T07:33:57.395Z,11
2022-11-23T07:35:13.650Z,11
2022-11-23T07:36:29.880Z,11
2022-11-23T07:37:46.113Z,11
2022-11-23T07:39:02.360Z,11
2022-11-23T07:40:18.596Z,11
2022-11-23T07:41:34.835Z,11
2022-11-23T07:42:50.112Z,11
2022-11-23T07:44:05.366Z,11
2022-11-23T07:45:20.614Z,11
2022-11-23T07:46:35.873Z,11
2022-11-23T07:47:51.140Z,11
2022-11-23T07:49:06.395Z,11
2022-11-23T07:50:22.637Z,11
2022-11-23T07:51:38.868Z,11
2022-11-23T07:52:55.112Z,11
2022-11-23T07:54:11.351Z,11
2022-11-23T07:55:27.591Z,11
2022-11-23T07:56:43.829Z,11
2022-11-23T07:58:00.072Z,16
2022-11-23T07:59:16.314Z,16
2022-11-23T08:00:32.547Z,16
2022-11-23T08:01:48.781Z,16
2022-11-23T08:03:05.022Z,16
2022-11-23T08:04:21.261Z,16
2022-11-23T08:05:36.516Z,16
2022-11-23T08:06:52.761Z,16
2022-11-23T08:08:09.000Z,16
2022-11-23T08:09:25.232Z,16
2022-11-23T08:10:41.481Z,16
2022-11-23T08:11:57.716Z,16
2022-11-23T08:13:13.958Z,16
2022-11-23T08:14:29.226Z,16
2022-11-23T08:15:44.480Z,22
2022-11-23T08:16:59.735Z,22
2022-11-23T08:18:14.984Z,22
2022-11-23T08:19:31.236Z,39
2022-11-23T08:20:46.495Z,33
2022-11-23T08:22:02.736Z,22
2022-11-23T08:23:18.962Z,22
2022-11-23T08:24:35.210Z,16
2022-11-23T08:25:51.455Z,16
2022-11-23T08:27:07.688Z,16
2022-11-23T08:28:23.934Z,16
2022-11-23T08:29:40.170Z,16
2022-11-23T08:30:56.399Z,22
2022-11-23T08:32:12.639Z,22
2022-11-23T08:33:28.900Z,22
2022-11-23T08:34:45.125Z,22
2022-11-23T08:36:01.361Z,22
2022-11-23T08:37:16.622Z,22
2022-11-23T08:38:32.861Z,16
2022-11-23T08:39:49.103Z,22
2022-11-23T08:41:05.340Z,22
2022-11-23T08:42:21.580Z,22
2022-11-23T08:43:37.824Z,22
2022-11-23T08:44:53.082Z,22
2022-11-23T08:46:08.330Z,22
2022-11-23T08:47:24.570Z,28
2022-11-23T08:48:40.810Z,39
2022-11-23T08:49:57.047Z,28
2022-11-23T08:51:13.304Z,28
2022-11-23T08:52:29.533Z,28
2022-11-23T08:53:45.782Z,28
2022-11-23T08:55:02.011Z,33
2022-11-23T08:56:18.246Z,33
2022-11-23T08:57:34.490Z,33
2022-11-23T08:58:50.732Z,39
2022-11-23T09:00:06.978Z,39
2022-11-23T09:01:23.219Z,33
2022-11-23T09:02:38.465Z,33
2022-11-23T09:03:54.706Z,33
2022-11-23T09:05:10.948Z,33
2022-11-23T09:06:27.193Z,33
2022-11-23T09:07:43.428Z,33
2022-11-23T09:10:15.902Z,45
2022-11-23T09:11:32.140Z,45
2022-11-23T09:12:47.399Z,45
2022-11-23T09:14:02.660Z,50
2022-11-23T09:15:18.894Z,90
2022-11-23T09:16:35.148Z,95
2022-11-23T09:17:51.372Z,95
2022-11-23T09:19:07.624Z,95
2022-11-23T09:20:23.848Z,95
2022-11-23T09:21:40.105Z,95
2022-11-23T09:22:56.340Z,95
2022-11-23T09:24:12.565Z,90
2022-11-23T09:25:28.808Z,95
2022-11-23T09:26:45.059Z,95
2022-11-23T09:28:01.288Z,112
2022-11-23T09:29:17.532Z,135
2022-11-23T09:30:32.801Z,135
2022-11-23T09:31:49.021Z,140
2022-11-23T09:33:05.274Z,90
2022-11-23T09:34:21.506Z,61
2022-11-23T09:35:37.742Z,112
2022-11-23T09:36:53.985Z,56
2022-11-23T09:38:10.215Z,146
2022-11-23T09:39:25.478Z,106
2022-11-23T09:40:40.735Z,129
2022-11-23T09:41:56.987Z,123
2022-11-23T09:43:13.221Z,135
2022-11-23T09:44:29.461Z,135
2022-11-23T09:45:45.699Z,157
2022-11-23T09:47:01.949Z,78
2022-11-23T09:48:18.182Z,56
2022-11-23T09:49:34.417Z,106
2022-11-23T09:50:50.654Z,78
2022-11-23T09:52:06.896Z,73
2022-11-23T09:53:23.142Z,61
2022-11-23T09:54:39.384Z,61
2022-11-23T09:55:55.628Z,61
2022-11-23T09:57:10.873Z,123
2022-11-23T09:58:27.118Z,67
2022-11-23T09:59:43.357Z,78
2022-11-23T10:00:59.590Z,73
2022-11-23T10:02:15.844Z,106
2022-11-23T10:03:32.072Z,67
2022-11-23T10:04:48.318Z,61
2022-11-23T10:06:04.549Z,67
2022-11-23T10:07:20.787Z,84
2022-11-23T10:08:37.032Z,101
2022-11-23T10:09:53.274Z,84
2022-11-23T10:11:09.513Z,73
2022-11-23T10:12:25.746Z,50
2022-11-23T10:13:41.002Z,61
2022-11-23T10:14:57.238Z,78
2022-11-23T10:16:13.489Z,61
2022-11-23T10:17:29.730Z,135
2022-11-23T10:18:45.971Z,135
2022-11-23T10:20:02.205Z,129
2022-11-23T10:21:18.454Z,129
2022-11-23T10:22:34.692Z,129
2022-11-23T10:23:50.943Z,129
2022-11-23T10:25:07.170Z,135
2022-11-23T10:26:23.406Z,135
2022-11-23T10:27:39.637Z,140
2022-11-23T10:28:55.878Z,146
2022-11-23T10:30:11.135Z,146
2022-11-23T10:31:27.377Z,151
2022-11-23T10:32:43.616Z,151
2022-11-23T10:33:59.854Z,151
2022-11-23T10:35:16.093Z,151
2022-11-23T10:36:32.326Z,157
2022-11-23T10:37:48.580Z,157
2022-11-23T10:39:04.808Z,163
2022-11-23T10:40:21.047Z,168
2022-11-23T10:41:37.280Z,174
2022-11-23T10:42:53.539Z,168
2022-11-23T10:44:09.768Z,174
2022-11-23T10:45:25.998Z,174
2022-11-23T10:46:41.271Z,174
2022-11-23T10:47:57.508Z,174
2022-11-23T10:49:13.734Z,174
2022-11-23T10:50:29.975Z,180
2022-11-23T10:51:46.216Z,180
2022-11-23T10:53:02.448Z,180
2022-11-23T10:54:18.703Z,185
2022-11-23T10:55:34.945Z,185
2022-11-23T10:56:51.163Z,185
2022-11-23T10:58:07.407Z,191
2022-11-23T10:59:23.645Z,191
2022-11-23T11:00:39.880Z,191
2022-11-23T11:01:56.128Z,196
2022-11-23T11:03:11.387Z,196
2022-11-23T11:04:27.623Z,196
2022-11-23T11:05:43.853Z,202
2022-11-23T11:07:00.091Z,208
2022-11-23T11:08:16.336Z,208
2022-11-23T11:09:32.579Z,208
2022-11-23T11:10:48.817Z,208
2022-11-23T11:12:05.047Z,219
2022-11-23T11:13:21.281Z,101
2022-11-23T11:14:37.520Z,191
2022-11-23T11:15:53.765Z,123
2022-11-23T11:17:10.013Z,163
2022-11-23T11:18:26.229Z,196
2022-11-23T11:19:41.483Z,168
2022-11-23T11:20:57.734Z,236
2022-11-23T11:22:13.959Z,225
2022-11-23T11:23:30.214Z,225
2022-11-23T11:24:46.440Z,225
2022-11-23T11:26:02.680Z,219
2022-11-23T11:27:18.928Z,219
2022-11-23T11:28:35.165Z,208
2022-11-23T11:29:51.400Z,196
2022-11-23T11:31:07.636Z,219
2022-11-23T11:32:23.882Z,157
2022-11-23T11:33:40.108Z,112
2022-11-23T11:34:56.348Z,202
2022-11-23T11:36:11.601Z,208
2022-11-23T11:37:27.845Z,208
2022-11-23T11:38:44.078Z,185
2022-11-23T11:40:00.323Z,151
2022-11-23T11:41:16.568Z,106
2022-11-23T11:42:32.811Z,112
2022-11-23T11:43:49.033Z,73
2022-11-23T11:45:05.285Z,67
2022-11-23T11:46:21.517Z,84
2022-11-23T11:47:37.754Z,90
2022-11-23T11:48:53.995Z,84
2022-11-23T11:50:10.229Z,90
2022-11-23T11:51:26.462Z,90
2022-11-23T11:52:41.723Z,67
2022-11-23T11:53:57.952Z,67
2022-11-23T11:55:14.197Z,61
2022-11-23T11:56:30.447Z,61
2022-11-23T11:57:46.672Z,67
2022-11-23T11:59:02.908Z,73
2022-11-23T12:00:19.153Z,50
2022-11-23T12:01:35.402Z,84
2022-11-23T12:02:51.635Z,56
2022-11-23T12:04:07.868Z,101
2022-11-23T12:05:24.104Z,118
2022-11-23T12:06:40.353Z,112
2022-11-23T12:07:56.582Z,73
2022-11-23T12:09:11.843Z,61
2022-11-23T12:10:28.079Z,95
2022-11-23T12:11:44.308Z,151
2022-11-23T12:13:00.549Z,185
2022-11-23T12:14:16.789Z,157
2022-11-23T12:15:33.040Z,157
2022-11-23T12:16:49.282Z,129
2022-11-23T12:18:05.503Z,101
2022-11-23T12:19:21.747Z,78
2022-11-23T12:20:37.981Z,67
2022-11-23T12:21:54.223Z,67
2022-11-23T12:23:10.469Z,73
2022-11-23T12:24:26.697Z,73
2022-11-23T12:25:41.962Z,90
2022-11-23T12:26:58.198Z,101
2022-11-23T12:28:14.424Z,129
2022-11-23T12:29:30.674Z,146
2022-11-23T12:30:46.920Z,185
2022-11-23T12:32:03.148Z,174
2022-11-23T12:33:19.385Z,118
2022-11-23T12:34:35.620Z,90
2022-11-23T12:35:50.903Z,90
2022-11-23T12:37:07.118Z,84
2022-11-23T12:38:23.362Z,90
2022-11-23T12:39:39.594Z,95
2022-11-23T12:40:55.832Z,106
2022-11-23T12:42:12.077Z,106
2022-11-23T12:43:28.325Z,95
2022-11-23T12:44:44.551Z,90
2022-11-23T12:46:00.796Z,84
2022-11-23T12:47:17.043Z,90
2022-11-23T12:48:33.000Z,90
2022-11-23T12:49:49.512Z,90
2022-11-23T12:51:05.746Z,84
2022-11-23T12:52:21.006Z,84
2022-11-23T12:53:37.254Z,106
2022-11-23T12:54:53.487Z,135
2022-11-23T12:56:09.717Z,157
2022-11-23T12:57:25.970Z,157
2022-11-23T12:58:42.191Z,163
2022-11-23T12:59:58.433Z,157
2022-11-23T13:01:14.672Z,180
2022-11-23T13:02:30.911Z,163
2022-11-23T13:03:47.154Z,106
2022-11-23T13:05:03.392Z,118
2022-11-23T13:06:19.624Z,95
2022-11-23T13:07:35.867Z,78
2022-11-23T13:08:51.122Z,78
2022-11-23T13:10:07.373Z,84
2022-11-23T13:11:23.600Z,73
2022-11-23T13:12:39.834Z,84
2022-11-23T13:13:56.092Z,101
2022-11-23T13:15:12.310Z,106
2022-11-23T13:16:28.559Z,123
2022-11-23T13:17:44.797Z,90
2022-11-23T13:19:01.033Z,61
2022-11-23T13:20:17.275Z,50
2022-11-23T13:21:33.512Z,50
2022-11-23T13:22:49.755Z,50
2022-11-23T13:24:05.992Z,45
2022-11-23T13:25:21.248Z,50
2022-11-23T13:26:37.475Z,50
2022-11-23T13:27:53.735Z,50
2022-11-23T13:29:09.964Z,45
2022-11-23T13:30:26.213Z,39
2022-11-23T13:31:42.434Z,39
2022-11-23T13:32:58.679Z,39
2022-11-23T13:34:14.924Z,39
2022-11-23T13:35:31.165Z,39
2022-11-23T13:36:47.388Z,50
2022-11-23T13:38:03.635Z,84
2022-11-23T13:39:19.877Z,140
2022-11-23T13:40:36.111Z,202
2022-11-23T13:41:51.376Z,174
2022-11-23T13:43:07.614Z,180
2022-11-23T13:44:23.841Z,196
2022-11-23T13:45:40.092Z,185
2022-11-23T13:46:56.328Z,168
2022-11-23T13:48:12.575Z,140
2022-11-23T13:49:28.812Z,112
2022-11-23T13:50:45.044Z,101
2022-11-23T13:52:01.278Z,61
2022-11-23T13:53:17.526Z,45
2022-11-23T13:54:33.761Z,45
2022-11-23T13:55:50.007Z,39
2022-11-23T13:57:06.241Z,45
2022-11-23T13:58:21.494Z,56
2022-11-23T13:59:37.738Z,84
2022-11-23T14:00:53.965Z,129
2022-11-23T14:02:10.204Z,151
2022-11-23T14:03:26.441Z,163
2022-11-23T14:04:42.678Z,135
2022-11-23T14:05:58.933Z,45
2022-11-23T14:07:15.171Z,129
2022-11-23T14:08:31.401Z,56
2022-11-23T14:09:47.650Z,33
2022-11-23T14:11:03.885Z,33
2022-11-23T14:12:20.110Z,90
2022-11-23T14:13:36.359Z,146
2022-11-23T14:14:51.616Z,84
2022-11-23T14:16:07.855Z,28
2022-11-23T14:17:24.109Z,28
2022-11-23T14:18:40.337Z,22
2022-11-23T14:19:56.569Z,22
2022-11-23T14:22:29.049Z,22
2022-11-23T14:23:45.288Z,22
2022-11-23T14:25:01.535Z,56
2022-11-23T14:26:17.759Z,78
2022-11-23T14:27:33.996Z,33
2022-11-23T14:28:50.237Z,16
2022-11-23T14:30:06.481Z,16
2022-11-23T14:31:21.740Z,16
2022-11-23T14:32:37.967Z,16
2022-11-23T14:33:54.222Z,16
2022-11-23T14:35:10.459Z,16
2022-11-23T14:36:26.699Z,16
2022-11-23T14:37:42.934Z,11
2022-11-23T14:38:59.176Z,11
2022-11-23T14:40:15.417Z,11
2022-11-23T14:41:31.656Z,11
2022-11-23T14:42:47.892Z,11
2022-11-23T14:44:04.134Z,11
2022-11-23T14:45:20.363Z,11
2022-11-23T14:46:36.600Z,16
2022-11-23T14:47:51.864Z,16
2022-11-23T14:49:08.108Z,16
2022-11-23T14:50:24.355Z,11
2022-11-23T14:51:40.570Z,5
2022-11-23T14:52:56.834Z,5
2022-11-23T14:54:13.056Z,5
2022-11-23T14:55:29.294Z,5
2022-11-23T14:56:45.527Z,5
2022-11-23T14:58:01.763Z,0
2022-11-23T14:59:18.021Z,0
2022-11-23T15:00:34.250Z,0
2022-11-23T15:01:50.495Z,0
2022-11-23T15:03:06.738Z,0
2022-11-23T15:04:21.977Z,0
2022-11-23T15:05:38.241Z,0
2022-11-23T15:06:54.469Z,0
2022-11-23T15:08:10.706Z,0
2022-11-23T15:09:26.959Z,0
2022-11-23T15:10:43.182Z,0
2022-11-23T15:11:59.426Z,0
2022-11-23T15:13:15.671Z,0
2022-11-23T15:14:31.897Z,0
2022-11-23T15:15:48.141Z,0
2022-11-23T15:17:04.375Z,0
2022-11-23T15:18:20.632Z,0
2022-11-23T15:19:36.853Z,0
2022-11-23T15:20:52.115Z,0
2022-11-23T15:22:08.359Z,0
2022-11-23T15:23:24.604Z,0
2022-11-23T15:24:40.842Z,0
2022-11-23T15:25:57.085Z,0
2022-11-23T15:27:13.322Z,0
2022-11-23T15:28:29.545Z,0
2022-11-23T15:29:45.800Z,0
2022-11-23T15:31:02.035Z,0
2022-11-23T15:32:18.267Z,0
2022-11-23T15:33:34.516Z,0
2022-11-23T15:34:50.774Z,0
2022-11-23T15:36:07.068Z,0
2022-11-23T15:37:22.315Z,0
2022-11-23T15:38:38.550Z,0
2022-11-23T15:39:54.848Z,0
2022-11-23T15:41:11.126Z,0
2022-11-23T15:42:27.425Z,0
2022-11-23T15:43:43.687Z,0
2022-11-23T15:44:59.929Z,0
2022-11-23T15:46:16.170Z,0
2022-11-23T15:47:32.458Z,0
2022-11-23T15:48:48.757Z,0
2022-11-23T15:50:05.034Z,0
2022-11-23T15:51:21.330Z,0
2022-11-23T15:52:37.625Z,0
2022-11-23T15:53:52.945Z,0
2022-11-23T15:55:09.241Z,0
2022-11-23T15:56:25.523Z,0
2022-11-23T15:57:41.823Z,0
2022-11-23T15:58:58.114Z,0
2022-11-23T16:00:14.420Z,0
2022-11-23T16:01:30.694Z,0
2022-11-23T16:02:46.999Z,0
2022-11-23T16:04:03.301Z,0
2022-11-23T16:05:19.582Z,0
2022-11-23T16:06:35.890Z,0
2022-11-23T16:07:52.167Z,0
2022-11-23T16:09:08.466Z,0
2022-11-23T16:10:23.774Z,0
2022-11-23T16:11:40.071Z,0
2022-11-23T16:12:56.364Z,0
2022-11-23T16:14:12.661Z,0
2022-11-23T16:15:28.964Z,0
2022-11-23T16:16:45.251Z,0
2022-11-23T16:18:01.536Z,0
2022-11-23T16:19:17.831Z,0
2022-11-23T16:20:34.139Z,0
2022-11-23T16:21:50.429Z,0
2022-11-23T16:23:06.709Z,0
2022-11-23T16:24:23.006Z,0
2022-11-23T16:25:39.300Z,0
2022-11-23T16:26:54.609Z,0
2022-11-23T16:28:10.909Z,0
2022-11-23T16:29:27.192Z,0
2022-11-23T16:30:43.492Z,0
2022-11-23T16:31:59.782Z,0
2022-11-23T16:33:16.088Z,0
2022-11-23T16:34:32.368Z,0
2022-11-23T16:35:48.000Z,0
2022-11-23T16:37:04.960Z,0
2022-11-23T16:38:21.248Z,0
2022-11-23T16:39:37.549Z,0
2022-11-23T16:40:53.838Z,0
2022-11-23T16:42:10.149Z,0
2022-11-23T16:43:25.446Z,0
2022-11-23T16:44:41.740Z,0
2022-11-23T16:47:14.329Z,0
2022-11-23T16:48:30.626Z,0
2022-11-23T16:49:46.915Z,0
2022-11-23T16:51:02.230Z,0
2022-11-23T16:52:18.514Z,0
2022-11-23T16:53:34.819Z,0
2022-11-23T16:54:51.108Z,0
2022-11-23T16:56:07.398Z,0
2022-11-23T16:57:23.697Z,0
2022-11-23T16:58:39.997Z,0
2022-11-23T16:59:56.286Z,0
2022-11-23T17:01:12.573Z,0
2022-11-23T17:02:28.868Z,0
2022-11-23T17:03:45.172Z,0
2022-11-23T17:05:01.457Z,0
2022-11-23T17:06:17.744Z,0
2022-11-23T17:07:33.052Z,0
2022-11-23T17:08:49.363Z,0
2022-11-23T17:10:05.643Z,0
2022-11-23T17:11:21.932Z,0
2022-11-23T17:12:38.240Z,0
2022-11-23T17:13:54.529Z,0
2022-11-23T17:15:10.817Z,0
2022-11-23T17:16:27.106Z,0
2022-11-23T17:17:43.412Z,0
2022-11-23T17:18:59.696Z,0
2022-11-23T17:20:16.001Z,0
2022-11-23T17:21:32.285Z,0
2022-11-23T17:22:48.573Z,0
2022-11-23T17:24:03.883Z,0
2022-11-23T17:25:20.183Z,0
2022-11-23T17:26:36.491Z,0
2022-11-23T17:27:52.771Z,0
2022-11-23T17:29:09.067Z,0
2022-11-23T17:30:25.364Z,0
2022-11-23T17:31:41.659Z,0
2022-11-23T17:32:57.939Z,0
2022-11-23T17:34:14.242Z,0
2022-11-23T17:35:30.535Z,0
2022-11-23T17:36:46.825Z,0
2022-11-23T17:38:03.131Z,0
2022-11-23T17:39:19.416Z,0
2022-11-23T17:40:34.725Z,0
2022-11-23T17:41:51.016Z,0
2022-11-23T17:43:07.311Z,0
2022-11-23T17:44:23.607Z,0
2022-11-23T17:45:39.893Z,0
2022-11-23T17:46:56.191Z,0
2022-11-23T17:48:12.476Z,0
2022-11-23T17:49:28.778Z,0
2022-11-23T17:50:45.073Z,0
2022-11-23T17:52:01.357Z,0
2022-11-23T17:53:17.654Z,0
2022-11-23T17:55:50.241Z,0
2022-11-23T17:57:05.553Z,0
2022-11-23T17:58:21.848Z,0
2022-11-23T17:59:38.141Z,0
2022-11-23T18:00:54.438Z,0
2022-11-23T18:02:10.737Z,0
2022-11-23T18:03:27.015Z,0
2022-11-23T18:04:43.323Z,0
2022-11-23T18:05:59.602Z,0
2022-11-23T18:07:15.903Z,0
2022-11-23T18:08:32.189Z,0
2022-11-23T18:09:48.499Z,0
2022-11-23T18:11:04.772Z,0
2022-11-23T18:12:21.066Z,0
2022-11-23T18:13:36.390Z,0
2022-11-23T18:14:52.671Z,0
2022-11-23T18:16:08.963Z,0
2022-11-23T18:17:25.266Z,0
2022-11-23T18:18:41.567Z,0
2022-11-23T18:19:57.843Z,0
2022-11-23T18:21:14.147Z,0
2022-11-23T18:22:30.432Z,0
2022-11-23T18:23:46.727Z,0
2022-11-23T18:25:03.018Z,0
2022-11-23T18:26:19.314Z,0
2022-11-23T18:27:35.609Z,0
2022-11-23T18:28:51.901Z,0
2022-11-23T18:30:07.212Z,0